createdAt,value
2019-04-16T00:01:03.174Z,10.65
2019-04-16T00:03:33.502Z,11.18
2019-04-16T00:06:24.043Z,10.23
2019-04-16T00:08:57.325Z,10.05
2019-04-16T00:11:35.525Z,12.75
2019-04-16T00:14:10.580Z,11.15
2019-04-16T00:16:41.386Z,12.43
2019-04-16T00:19:12.976Z,9.75
2019-04-16T00:21:50.939Z,10.75
2019-04-16T00:24:28.631Z,10.88
2019-04-16T00:27:00.019Z,10.53
2019-04-16T00:29:33.048Z,10.70
2019-04-16T00:32:07.893Z,10.82
2019-04-16T00:34:34.846Z,13.53
2019-04-16T00:37:05.184Z,9.25
2019-04-16T00:39:35.523Z,10.78
2019-04-16T00:42:05.873Z,10.90
2019-04-16T00:44:36.221Z,10.05
2019-04-16T00:47:06.561Z,13.45
2019-04-16T00:49:38.061Z,9.83
2019-04-16T00:52:08.589Z,17.50
2019-04-16T00:54:39.335Z,11.85
2019-04-16T00:57:10.971Z,9.48
2019-04-16T00:59:41.308Z,12.75
2019-04-16T01:02:11.645Z,12.25
2019-04-16T01:04:41.990Z,10.82
2019-04-16T01:07:12.321Z,11.12
2019-04-16T01:09:42.678Z,11.08
2019-04-16T01:12:13.017Z,11.88
2019-04-16T01:14:43.387Z,10.80
2019-04-16T01:17:14.862Z,10.98
2019-04-16T01:19:46.272Z,10.32
2019-04-16T01:22:16.858Z,10.75
2019-04-16T01:24:51.694Z,12.00
2019-04-16T01:27:20.954Z,10.90
2019-04-16T01:29:51.301Z,10.08
2019-04-16T01:32:42.407Z,10.08
2019-04-16T01:35:28.286Z,11.75
2019-04-16T01:38:16.370Z,10.88
2019-04-16T01:41:00.310Z,10.65
2019-04-16T01:43:30.712Z,9.98
2019-04-16T01:46:02.350Z,11.38
2019-04-16T01:48:33.068Z,10.10
2019-04-16T01:51:03.432Z,13.10
2019-04-16T01:53:33.777Z,13.83
2019-04-16T01:56:04.113Z,9.03
2019-04-16T01:58:34.658Z,10.23
2019-04-16T02:01:05.235Z,11.73
2019-04-16T02:03:35.616Z,10.65
2019-04-16T02:06:05.962Z,11.28
2019-04-16T02:08:36.382Z,10.43
2019-04-16T02:11:09.821Z,12.93
2019-04-16T02:13:38.771Z,9.53
2019-04-16T02:16:09.115Z,10.93
2019-04-16T02:18:39.447Z,12.63
2019-04-16T02:21:11.140Z,11.08
2019-04-16T02:23:41.713Z,10.25
2019-04-16T02:26:12.071Z,13.13
2019-04-16T02:28:42.425Z,12.00
2019-04-16T02:31:15.355Z,11.97
2019-04-16T02:33:44.806Z,11.08
2019-04-16T02:36:15.165Z,14.10
2019-04-16T02:38:52.424Z,12.63
2019-04-16T02:41:18.580Z,13.15
2019-04-16T02:43:49.045Z,14.78
2019-04-16T02:46:19.377Z,12.47
2019-04-16T02:48:51.390Z,11.12
2019-04-16T02:51:32.630Z,11.78
2019-04-16T02:54:13.758Z,13.48
2019-04-16T02:57:07.986Z,14.25
2019-04-16T02:59:45.993Z,12.90
2019-04-16T03:02:26.224Z,11.35
2019-04-16T03:05:01.712Z,11.48
2019-04-16T03:07:32.742Z,13.55
2019-04-16T03:10:04.873Z,12.90
2019-04-16T03:12:35.299Z,11.88
2019-04-16T03:15:07.842Z,11.10
2019-04-16T03:17:42.914Z,14.55
2019-04-16T03:20:13.665Z,11.88
2019-04-16T03:22:44.006Z,14.58
2019-04-16T03:25:14.844Z,12.70
2019-04-16T03:27:45.166Z,12.10
2019-04-16T03:30:15.774Z,11.88
2019-04-16T03:32:49.890Z,11.40
2019-04-16T03:35:25.503Z,10.43
2019-04-16T03:37:52.439Z,12.33
2019-04-16T03:40:25.587Z,11.95
2019-04-16T03:42:58.941Z,10.43
2019-04-16T03:45:26.856Z,12.35
2019-04-16T03:47:58.218Z,11.12
2019-04-16T03:50:31.356Z,11.50
2019-04-16T03:53:00.603Z,15.63
2019-04-16T03:55:30.996Z,11.63
2019-04-16T03:58:05.246Z,13.78
2019-04-16T04:00:34.465Z,11.73
2019-04-16T04:03:04.818Z,13.95
2019-04-16T04:05:35.817Z,13.68
2019-04-16T04:08:06.187Z,13.25
2019-04-16T04:10:37.738Z,11.93
2019-04-16T04:13:08.522Z,11.38
2019-04-16T04:15:39.891Z,13.40
2019-04-16T04:18:11.818Z,12.93
2019-04-16T04:20:42.598Z,11.40
2019-04-16T04:23:13.036Z,13.35
2019-04-16T04:25:43.368Z,14.95
2019-04-16T04:28:18.747Z,12.95
2019-04-16T04:30:48.586Z,11.73
2019-04-16T04:33:40.941Z,10.35
2019-04-16T04:36:10.654Z,13.20
2019-04-16T04:38:41.559Z,12.98
2019-04-16T04:41:11.910Z,14.58
2019-04-16T04:43:42.268Z,11.68
2019-04-16T04:46:14.782Z,14.50
2019-04-16T04:48:44.662Z,12.93
2019-04-16T04:51:15.334Z,14.47
2019-04-16T04:53:47.567Z,14.25
2019-04-16T04:56:19.569Z,12.73
2019-04-16T04:58:49.689Z,12.95
2019-04-16T05:01:20.027Z,13.25
2019-04-16T05:04:04.028Z,12.80
2019-04-16T05:06:38.834Z,13.72
2019-04-16T05:09:09.350Z,15.10
2019-04-16T05:11:39.692Z,14.45
2019-04-16T05:14:10.211Z,13.78
2019-04-16T05:16:40.463Z,13.03
2019-04-16T05:19:13.825Z,12.80
2019-04-16T05:21:42.857Z,12.47
2019-04-16T05:24:13.210Z,13.08
2019-04-16T05:26:43.550Z,13.32
2019-04-16T05:29:17.057Z,13.00
2019-04-16T05:31:45.927Z,12.10
2019-04-16T05:34:17.928Z,11.15
2019-04-16T05:36:48.383Z,14.55
2019-04-16T05:39:18.717Z,15.00
2019-04-16T05:41:50.448Z,14.38
2019-04-16T05:44:21.095Z,15.13
2019-04-16T05:46:51.430Z,14.55
2019-04-16T05:49:24.680Z,12.95
2019-04-16T05:51:53.847Z,11.10
2019-04-16T05:54:28.685Z,16.32
2019-04-16T05:57:00.657Z,13.15
2019-04-16T05:59:33.789Z,13.32
2019-04-16T06:02:07.865Z,14.28
2019-04-16T06:04:39.134Z,11.90
2019-04-16T06:07:10.615Z,12.33
2019-04-16T06:09:41.535Z,12.88
2019-04-16T06:12:13.002Z,11.78
2019-04-16T06:14:46.408Z,11.95
2019-04-16T06:17:21.360Z,10.50
2019-04-16T06:19:53.357Z,10.13
2019-04-16T06:22:31.367Z,13.20
2019-04-16T06:25:19.466Z,12.45
2019-04-16T06:27:51.437Z,13.35
2019-04-16T06:30:39.557Z,13.55
2019-04-16T06:33:14.236Z,12.73
2019-04-16T06:36:07.508Z,16.20
2019-04-16T06:38:51.699Z,10.82
2019-04-16T06:41:40.809Z,16.10
2019-04-16T06:44:04.137Z,15.85
2019-04-16T06:46:39.388Z,10.72
2019-04-16T06:49:14.297Z,15.25
2019-04-16T06:51:53.672Z,12.78
2019-04-16T06:54:32.067Z,11.60
2019-04-16T06:57:05.494Z,13.60
2019-04-16T06:59:53.944Z,15.20
2019-04-16T07:02:31.581Z,14.33
2019-04-16T07:05:06.305Z,9.35
2019-04-16T07:07:46.783Z,11.05
2019-04-16T07:10:17.843Z,11.00
2019-04-16T07:12:48.311Z,11.38
2019-04-16T07:15:22.595Z,10.15
2019-04-16T07:17:51.188Z,10.25
2019-04-16T07:20:21.731Z,11.33
2019-04-16T07:22:53.017Z,13.72
2019-04-16T07:25:27.150Z,12.25
2019-04-16T07:27:58.650Z,10.70
2019-04-16T07:30:30.961Z,11.53
2019-04-16T07:33:11.702Z,11.28
2019-04-16T07:35:55.882Z,10.13
2019-04-16T07:38:27.867Z,11.08
2019-04-16T07:41:12.389Z,12.37
2019-04-16T07:44:04.394Z,11.73
2019-04-16T07:46:37.125Z,14.18
2019-04-16T07:49:26.508Z,9.98
2019-04-16T07:52:16.770Z,13.85
2019-04-16T07:55:03.817Z,10.23
2019-04-16T07:57:34.123Z,12.10
2019-04-16T08:00:23.517Z,11.18
2019-04-16T08:02:58.563Z,13.18
2019-04-16T08:05:28.933Z,9.53
2019-04-16T08:08:00.869Z,10.08
2019-04-16T08:10:31.210Z,10.10
2019-04-16T08:13:03.262Z,11.68
2019-04-16T08:15:33.678Z,10.68
2019-04-16T08:18:04.027Z,10.25
2019-04-16T08:20:34.456Z,10.70
2019-04-16T08:23:22.593Z,12.40
2019-04-16T08:26:11.393Z,9.75
2019-04-16T08:28:37.027Z,13.18
2019-04-16T08:31:12.302Z,13.30
2019-04-16T08:33:41.042Z,12.63
2019-04-16T08:36:11.396Z,11.00
2019-04-16T08:38:41.736Z,10.30
2019-04-16T08:41:13.320Z,10.03
2019-04-16T08:43:43.758Z,13.93
2019-04-16T08:46:14.100Z,13.90
2019-04-16T08:48:48.901Z,11.48
2019-04-16T08:51:29.719Z,11.63
2019-04-16T08:53:48.531Z,14.07
2019-04-16T08:56:18.862Z,14.13
2019-04-16T08:58:49.217Z,12.28
2019-04-16T09:01:23.580Z,10.65
2019-04-16T09:03:53.257Z,13.13
2019-04-16T09:06:23.604Z,12.47
2019-04-16T09:09:12.705Z,12.78
2019-04-16T09:11:36.741Z,10.65
2019-04-16T09:14:08.774Z,11.28
2019-04-16T09:16:46.603Z,10.53
2019-04-16T09:19:18.713Z,11.50
2019-04-16T09:21:49.081Z,14.45
2019-04-16T09:24:27.185Z,13.10
2019-04-16T09:26:59.187Z,10.18
2019-04-16T09:29:31.164Z,12.03
2019-04-16T09:32:08.887Z,11.57
2019-04-16T09:35:07.969Z,14.78
2019-04-16T09:37:46.999Z,14.38
2019-04-16T09:40:34.898Z,17.98
2019-04-16T09:43:17.595Z,12.35
2019-04-16T09:45:44.981Z,11.03
2019-04-16T09:48:15.320Z,11.05
2019-04-16T09:50:47.834Z,11.40
2019-04-16T09:53:17.729Z,10.98
2019-04-16T09:55:50.617Z,10.28
2019-04-16T09:58:22.594Z,13.60
2019-04-16T10:01:06.891Z,12.88
2019-04-16T10:03:41.833Z,13.53
2019-04-16T10:06:12.182Z,13.68
2019-04-16T10:08:45.037Z,12.30
2019-04-16T10:11:18.172Z,12.58
2019-04-16T10:13:47.007Z,12.18
2019-04-16T10:16:19.263Z,12.82
2019-04-16T10:18:49.672Z,12.80
2019-04-16T10:21:20.357Z,12.53
2019-04-16T10:23:53.465Z,12.98
2019-04-16T10:26:23.800Z,15.50
2019-04-16T10:28:55.422Z,14.80
2019-04-16T10:31:27.261Z,20.88
2019-04-16T10:33:57.573Z,13.08
2019-04-16T10:36:27.912Z,11.10
2019-04-16T10:39:16.999Z,15.88
2019-04-16T10:41:48.994Z,13.28
2019-04-16T10:44:20.991Z,18.45
2019-04-16T10:46:52.981Z,14.23
2019-04-16T10:49:33.794Z,14.43
2019-04-16T10:52:08.245Z,13.10
2019-04-16T10:54:43.172Z,16.15
2019-04-16T10:57:15.341Z,13.55
2019-04-16T10:59:53.075Z,14.35
2019-04-16T11:02:25.067Z,13.98
2019-04-16T11:05:19.303Z,14.05
2019-04-16T11:07:50.597Z,13.30
2019-04-16T11:10:22.637Z,13.72
2019-04-16T11:12:53.049Z,16.77
2019-04-16T11:15:25.272Z,13.65
2019-04-16T11:17:55.616Z,13.10
2019-04-16T11:20:27.030Z,16.32
2019-04-16T11:22:57.393Z,14.87
2019-04-16T11:25:27.704Z,13.65
2019-04-16T11:27:58.058Z,15.08
2019-04-16T11:30:33.001Z,13.78
2019-04-16T11:33:03.592Z,19.15
2019-04-16T11:35:34.081Z,15.60
2019-04-16T11:38:05.095Z,15.65
2019-04-16T11:40:35.493Z,18.15
2019-04-16T11:43:05.859Z,16.85
2019-04-16T11:45:36.240Z,16.77
2019-04-16T11:48:07.012Z,15.23
2019-04-16T11:50:37.424Z,15.08
2019-04-16T11:53:07.862Z,16.35
2019-04-16T11:55:38.213Z,15.40
2019-04-16T11:58:10.198Z,15.48
2019-04-16T12:00:48.172Z,16.50
2019-04-16T12:03:20.172Z,15.45
2019-04-16T12:05:58.041Z,17.20
2019-04-16T12:08:46.228Z,22.32
2019-04-16T12:11:21.106Z,15.50
2019-04-16T12:14:04.150Z,18.17
2019-04-16T12:16:41.574Z,16.02
2019-04-16T12:19:29.850Z,17.98
2019-04-16T12:22:10.632Z,16.02
2019-04-16T12:24:54.894Z,16.73
2019-04-16T12:27:26.897Z,19.35
2019-04-16T12:30:14.198Z,16.80
2019-04-16T12:32:57.856Z,19.82
2019-04-16T12:35:35.957Z,19.15
2019-04-16T12:38:11.987Z,23.38
2019-04-16T12:40:47.372Z,19.40
2019-04-16T12:43:22.095Z,17.77
2019-04-16T12:46:10.468Z,19.25
2019-04-16T12:48:54.476Z,17.95
2019-04-16T12:51:43.149Z,21.00
2019-04-16T12:54:25.615Z,17.57
2019-04-16T12:57:04.032Z,18.35
2019-04-16T12:59:54.635Z,17.42
2019-04-16T13:02:27.957Z,19.27
2019-04-16T13:05:21.052Z,20.48
2019-04-16T13:07:57.870Z,19.92
2019-04-16T13:10:29.884Z,19.27
2019-04-16T13:13:01.873Z,21.27
2019-04-16T13:15:39.631Z,19.10
2019-04-16T13:18:14.520Z,19.35
2019-04-16T13:21:05.121Z,18.90
2019-04-16T13:23:39.504Z,19.27
2019-04-16T13:26:13.984Z,18.67
2019-04-16T13:28:44.311Z,18.73
2019-04-16T13:31:14.673Z,18.50
2019-04-16T13:33:46.185Z,22.13
2019-04-16T13:36:17.146Z,18.12
2019-04-16T13:39:07.765Z,18.73
2019-04-16T13:41:39.541Z,20.85
2019-04-16T13:44:16.909Z,18.70
2019-04-16T13:46:46.100Z,18.85
2019-04-16T13:49:24.207Z,19.25
2019-04-16T13:51:52.859Z,20.15
2019-04-16T13:54:28.313Z,18.40
2019-04-16T13:57:00.378Z,16.85
2019-04-16T13:59:48.572Z,19.40
2019-04-16T14:02:23.483Z,17.77
2019-04-16T14:04:54.048Z,20.85
2019-04-16T14:07:25.579Z,18.32
2019-04-16T14:09:57.004Z,18.95
2019-04-16T14:12:41.277Z,18.87
2019-04-16T14:14:59.667Z,15.72
2019-04-16T14:17:30.122Z,18.02
2019-04-16T14:20:00.552Z,17.30
2019-04-16T14:22:30.938Z,14.68
2019-04-16T14:25:01.264Z,19.48
2019-04-16T14:27:31.624Z,20.10
2019-04-16T14:30:09.995Z,18.55
2019-04-16T14:32:37.040Z,20.48
2019-04-16T14:35:09.507Z,24.00
2019-04-16T14:37:39.847Z,19.17
2019-04-16T14:40:18.766Z,18.77
2019-04-16T14:42:49.316Z,18.90
2019-04-16T14:45:50.122Z,19.23
2019-04-16T14:48:08.902Z,20.52
2019-04-16T14:50:38.148Z,19.27
2019-04-16T14:53:08.502Z,15.25
2019-04-16T14:55:58.713Z,20.30
2019-04-16T14:58:29.016Z,16.75
2019-04-16T15:01:01.009Z,22.27
2019-04-16T15:03:49.449Z,19.55
2019-04-16T15:06:24.147Z,19.57
2019-04-16T15:09:03.187Z,17.82
2019-04-16T15:11:53.522Z,19.95
2019-04-16T15:14:26.142Z,19.32
2019-04-16T15:17:04.870Z,19.98
2019-04-16T15:19:36.860Z,19.45
2019-04-16T15:22:24.704Z,19.75
2019-04-16T15:25:02.421Z,23.52
2019-04-16T15:27:34.404Z,18.90
2019-04-16T15:30:28.557Z,20.35
2019-04-16T15:33:07.154Z,18.80
2019-04-16T15:35:40.328Z,23.38
2019-04-16T15:38:20.813Z,21.27
2019-04-16T15:40:55.966Z,19.23
2019-04-16T15:43:43.166Z,21.15
2019-04-16T15:46:26.183Z,21.97
2019-04-16T15:49:00.648Z,21.35
2019-04-16T15:51:32.653Z,20.75
2019-04-16T15:54:10.347Z,26.77
2019-04-16T15:56:42.483Z,19.52
2019-04-16T15:59:20.426Z,22.25
2019-04-16T16:01:55.109Z,18.75
2019-04-16T16:04:32.878Z,23.40
2019-04-16T16:07:07.932Z,20.05
2019-04-16T16:09:58.079Z,19.40
2019-04-16T16:12:27.790Z,22.67
2019-04-16T16:14:58.145Z,19.75
2019-04-16T16:17:28.501Z,21.33
2019-04-16T16:19:58.862Z,21.17
2019-04-16T16:22:29.220Z,20.55
2019-04-16T16:24:59.618Z,22.67
2019-04-16T16:27:29.958Z,18.17
2019-04-16T16:30:00.313Z,19.50
2019-04-16T16:32:30.664Z,20.62
2019-04-16T16:35:01.013Z,21.77
2019-04-16T16:37:33.876Z,22.82
2019-04-16T16:40:04.337Z,21.15
2019-04-16T16:42:34.958Z,21.37
2019-04-16T16:45:06.640Z,22.22
2019-04-16T16:47:39.860Z,22.65
2019-04-16T16:50:12.824Z,19.32
2019-04-16T16:52:49.999Z,24.37
2019-04-16T16:55:27.879Z,22.30
2019-04-16T16:57:59.872Z,21.57
2019-04-16T17:00:48.156Z,18.85
2019-04-16T17:03:25.877Z,19.40
2019-04-16T17:05:57.497Z,23.65
2019-04-16T17:08:30.245Z,18.75
2019-04-16T17:11:14.578Z,20.05
2019-04-16T17:13:31.954Z,18.87
2019-04-16T17:16:02.315Z,18.25
2019-04-16T17:18:32.663Z,20.00
2019-04-16T17:21:03.011Z,19.90
2019-04-16T17:23:33.379Z,19.98
2019-04-16T17:26:03.715Z,17.48
2019-04-16T17:28:34.072Z,18.40
2019-04-16T17:31:04.417Z,19.80
2019-04-16T17:33:34.839Z,22.80
2019-04-16T17:36:05.538Z,23.75
2019-04-16T17:38:36.849Z,19.70
2019-04-16T17:41:12.494Z,18.90
2019-04-16T17:44:01.896Z,18.92
2019-04-16T17:46:30.151Z,24.80
2019-04-16T17:49:02.141Z,17.35
2019-04-16T17:51:40.099Z,18.92
2019-04-16T17:54:12.099Z,19.90
2019-04-16T17:56:46.793Z,20.72
2019-04-16T17:59:21.717Z,20.62
2019-04-16T18:02:10.114Z,19.85
2019-04-16T18:04:58.506Z,20.17
2019-04-16T18:07:45.809Z,19.57
2019-04-16T18:10:27.129Z,22.90
2019-04-16T18:13:01.783Z,25.32
2019-04-16T18:15:51.993Z,17.15
2019-04-16T18:18:26.995Z,24.87
2019-04-16T18:21:15.276Z,18.32
2019-04-16T18:23:47.265Z,20.08
2019-04-16T18:26:22.508Z,21.87
2019-04-16T18:29:03.524Z,19.10
2019-04-16T18:31:35.513Z,18.02
2019-04-16T18:34:19.753Z,23.77
2019-04-16T18:37:07.928Z,19.15
2019-04-16T18:39:42.645Z,18.95
2019-04-16T18:42:17.372Z,21.12
2019-04-16T18:44:55.004Z,18.62
2019-04-16T18:47:35.227Z,20.37
2019-04-16T18:50:12.361Z,19.27
2019-04-16T18:52:42.714Z,18.57
2019-04-16T18:55:14.159Z,18.87
2019-04-16T18:57:44.540Z,20.27
2019-04-16T19:00:32.148Z,19.52
2019-04-16T19:03:01.479Z,18.37
2019-04-16T19:05:31.919Z,19.60
2019-04-16T19:08:02.264Z,20.60
2019-04-16T19:10:32.604Z,18.92
2019-04-16T19:13:09.622Z,18.60
2019-04-16T19:15:35.013Z,21.57
2019-04-16T19:18:18.609Z,19.90
2019-04-16T19:20:37.612Z,18.82
2019-04-16T19:23:08.031Z,18.60
2019-04-16T19:25:38.382Z,18.02
2019-04-16T19:28:08.731Z,19.23
2019-04-16T19:30:39.115Z,19.30
2019-04-16T19:33:09.443Z,19.40
2019-04-16T19:35:40.765Z,18.40
2019-04-16T19:38:11.129Z,19.42
2019-04-16T19:40:41.467Z,19.30
2019-04-16T19:43:11.827Z,19.85
2019-04-16T19:45:43.729Z,18.42
2019-04-16T19:48:17.764Z,18.77
2019-04-16T19:50:46.556Z,21.23
2019-04-16T19:53:16.919Z,20.48
2019-04-16T19:55:47.265Z,17.80
2019-04-16T19:58:17.615Z,19.77
2019-04-16T20:00:47.976Z,21.80
2019-04-16T20:03:19.390Z,18.95
2019-04-16T20:05:49.738Z,20.30
2019-04-16T20:08:20.086Z,20.77
2019-04-16T20:10:50.451Z,20.00
2019-04-16T20:13:20.796Z,18.77
2019-04-16T20:15:51.143Z,18.82
2019-04-16T20:18:23.135Z,21.23
2019-04-16T20:20:53.496Z,20.97
2019-04-16T20:23:23.840Z,20.77
2019-04-16T20:25:58.666Z,21.80
2019-04-16T20:28:26.225Z,16.95
2019-04-16T20:31:01.386Z,24.52
2019-04-16T20:33:28.692Z,22.00
2019-04-16T20:35:58.973Z,20.48
2019-04-16T20:38:30.117Z,21.60
2019-04-16T20:41:00.564Z,17.67
2019-04-16T20:43:32.039Z,17.90
2019-04-16T20:46:02.397Z,18.65
2019-04-16T20:48:32.747Z,17.30
2019-04-16T20:51:03.175Z,16.80
2019-04-16T20:53:33.516Z,17.42
2019-04-16T20:56:04.177Z,16.52
2019-04-16T20:58:34.595Z,16.35
2019-04-16T21:01:05.409Z,14.95
2019-04-16T21:03:35.868Z,19.00
2019-04-16T21:06:07.816Z,16.73
2019-04-16T21:08:38.255Z,16.05
2019-04-16T21:11:09.607Z,15.00
2019-04-16T21:13:40.151Z,17.00
2019-04-16T21:16:10.515Z,16.97
2019-04-16T21:18:40.866Z,17.02
2019-04-16T21:21:11.214Z,15.93
2019-04-16T21:23:41.566Z,16.62
2019-04-16T21:26:11.910Z,14.43
2019-04-16T21:29:02.130Z,15.18
2019-04-16T21:31:32.559Z,15.88
2019-04-16T21:34:07.569Z,18.70
2019-04-16T21:36:45.586Z,15.13
2019-04-16T21:39:26.448Z,12.90
2019-04-16T21:42:00.853Z,14.75
2019-04-16T21:44:28.843Z,14.25
2019-04-16T21:46:59.185Z,12.98
2019-04-16T21:49:38.251Z,13.43
2019-04-16T21:52:07.848Z,16.20
2019-04-16T21:54:39.345Z,11.97
2019-04-16T21:57:13.274Z,12.90
2019-04-16T21:59:42.847Z,12.43
2019-04-16T22:02:15.968Z,15.30
2019-04-16T22:04:46.310Z,15.23
2019-04-16T22:07:16.653Z,14.90
2019-04-16T22:09:46.994Z,16.62
2019-04-16T22:12:17.349Z,16.15
2019-04-16T22:14:47.690Z,16.48
2019-04-16T22:17:18.036Z,14.93
2019-04-16T22:19:54.339Z,17.75
2019-04-16T22:22:21.478Z,13.03
2019-04-16T22:24:54.822Z,13.50
2019-04-16T22:27:24.444Z,14.53
2019-04-16T22:29:56.424Z,14.00
2019-04-16T22:32:27.082Z,16.42
2019-04-16T22:34:59.012Z,15.60
2019-04-16T22:37:29.366Z,16.60
2019-04-16T22:40:10.485Z,14.28
2019-04-16T22:43:05.227Z,14.38
2019-04-16T22:45:34.959Z,16.10
2019-04-16T22:48:05.313Z,15.43
2019-04-16T22:50:38.008Z,11.97
2019-04-16T22:53:07.962Z,17.20
2019-04-16T22:55:42.361Z,14.50
2019-04-16T22:58:12.251Z,14.40
2019-04-16T23:00:45.090Z,17.77
2019-04-16T23:03:16.589Z,13.85
2019-04-16T23:05:47.599Z,15.38
2019-04-16T23:08:17.942Z,14.40
2019-04-16T23:10:50.546Z,14.55
2019-04-16T23:13:20.417Z,14.35
2019-04-16T23:15:50.767Z,15.23
2019-04-16T23:18:21.104Z,13.43
2019-04-16T23:20:51.467Z,16.48
2019-04-16T23:23:21.811Z,17.32
2019-04-16T23:25:52.166Z,16.77
2019-04-16T23:28:22.509Z,13.58
2019-04-16T23:30:52.855Z,14.35
2019-04-16T23:33:23.192Z,15.48
2019-04-16T23:35:53.542Z,15.48
2019-04-16T23:38:23.876Z,12.95
2019-04-16T23:40:54.243Z,13.25
2019-04-16T23:43:31.923Z,13.32
2019-04-16T23:46:20.418Z,13.18
2019-04-16T23:48:52.404Z,13.88
2019-04-16T23:51:28.676Z,13.03
2019-04-16T23:54:08.282Z,15.65
2019-04-16T23:56:43.773Z,12.43
2019-04-16T23:59:21.719Z,12.10
